sensor_id;sensor_type;location;lat;lon;timestamp;pressure;altitude;pressure_sealevel;temperature;humidity
51468;BME280;37545;45.302;-122.946;2024-01-11T00:00:13;100289.00;;;6.79;100.00
51468;BME280;37545;45.302;-122.946;2024-01-11T00:02:42;100296.31;;;6.68;100.00
51468;BME280;37545;45.302;-122.946;2024-01-11T00:05:14;100295.28;;;6.63;100.00
51468;BME280;37545;45.302;-122.946;2024-01-11T00:07:45;100294.16;;;6.56;100.00
51468;BME280;37545;45.302;-122.946;2024-01-11T00:10:16;100300.81;;;6.51;100.00
51468;BME280;37545;45.302;-122.946;2024-01-11T00:12:45;100300.47;;;6.42;100.00
51468;BME280;37545;45.302;-122.946;2024-01-11T00:15:19;100301.97;;;6.37;100.00
51468;BME280;37545;45.302;-122.946;2024-01-11T00:17:49;100302.31;;;6.23;100.00
51468;BME280;37545;45.302;-122.946;2024-01-11T00:20:18;100312.78;;;6.28;100.00
51468;BME280;37545;45.302;-122.946;2024-01-11T00:22:47;100312.53;;;6.22;100.00
51468;BME280;37545;45.302;-122.946;2024-01-11T00:25:24;100317.56;;;6.19;100.00
51468;BME280;37545;45.302;-122.946;2024-01-11T00:27:53;100319.03;;;6.14;100.00
51468;BME280;37545;45.302;-122.946;2024-01-11T00:30:22;100322.19;;;6.06;100.00
51468;BME280;37545;45.302;-122.946;2024-01-11T00:32:51;100315.78;;;5.97;100.00
51468;BME280;37545;45.302;-122.946;2024-01-11T00:35:21;100312.28;;;5.95;100.00
51468;BME280;37545;45.302;-122.946;2024-01-11T00:37:50;100311.41;;;5.94;100.00
51468;BME280;37545;45.302;-122.946;2024-01-11T00:40:19;100323.34;;;5.94;100.00
51468;BME280;37545;45.302;-122.946;2024-01-11T00:42:58;100324.16;;;5.93;100.00
51468;BME280;37545;45.302;-122.946;2024-01-11T00:45:34;100323.28;;;5.92;100.00
51468;BME280;37545;45.302;-122.946;2024-01-11T00:48:04;100332.50;;;5.87;100.00
51468;BME280;37545;45.302;-122.946;2024-01-11T00:50:33;100314.38;;;5.84;100.00
51468;BME280;37545;45.302;-122.946;2024-01-11T00:53:05;100319.19;;;5.76;100.00
51468;BME280;37545;45.302;-122.946;2024-01-11T00:55:35;100324.25;;;5.75;100.00
51468;BME280;37545;45.302;-122.946;2024-01-11T00:58:06;100324.25;;;5.75;100.00
51468;BME280;37545;45.302;-122.946;2024-01-11T01:00:36;100314.75;;;5.72;100.00
51468;BME280;37545;45.302;-122.946;2024-01-11T01:03:15;100318.75;;;5.65;100.00
51468;BME280;37545;45.302;-122.946;2024-01-11T01:05:45;100325.50;;;5.63;100.00
51468;BME280;37545;45.302;-122.946;2024-01-11T01:08:16;100323.63;;;5.59;100.00
51468;BME280;37545;45.302;-122.946;2024-01-11T01:10:46;100327.75;;;5.56;100.00
51468;BME280;37545;45.302;-122.946;2024-01-11T01:13:17;100327.56;;;5.51;100.00
51468;BME280;37545;45.302;-122.946;2024-01-11T01:15:46;100337.03;;;5.52;100.00
51468;BME280;37545;45.302;-122.946;2024-01-11T01:18:16;100335.13;;;5.48;100.00
51468;BME280;37545;45.302;-122.946;2024-01-11T01:20:53;100336.75;;;5.46;100.00
51468;BME280;37545;45.302;-122.946;2024-01-11T01:23:23;100341.25;;;5.52;100.00
51468;BME280;37545;45.302;-122.946;2024-01-11T01:25:52;100343.16;;;5.56;100.00
51468;BME280;37545;45.302;-122.946;2024-01-11T01:28:34;100340.50;;;5.54;100.00
51468;BME280;37545;45.302;-122.946;2024-01-11T01:31:04;100337.13;;;5.55;100.00
51468;BME280;37545;45.302;-122.946;2024-01-11T01:33:33;100345.78;;;5.57;100.00
51468;BME280;37545;45.302;-122.946;2024-01-11T01:36:02;100349.09;;;5.55;100.00
51468;BME280;37545;45.302;-122.946;2024-01-11T01:38:38;100356.06;;;5.57;100.00
51468;BME280;37545;45.302;-122.946;2024-01-11T01:41:07;100353.59;;;5.60;100.00
51468;BME280;37545;45.302;-122.946;2024-01-11T01:43:38;100358.66;;;5.59;100.00
51468;BME280;37545;45.302;-122.946;2024-01-11T01:46:15;100351.88;;;5.59;100.00
51468;BME280;37545;45.302;-122.946;2024-01-11T01:48:48;100366.72;;;5.66;100.00
51468;BME280;37545;45.302;-122.946;2024-01-11T01:51:18;100361.59;;;5.66;100.00
51468;BME280;37545;45.302;-122.946;2024-01-11T01:53:47;100357.38;;;5.69;100.00
51468;BME280;37545;45.302;-122.946;2024-01-11T01:56:21;100356.44;;;5.66;100.00
51468;BME280;37545;45.302;-122.946;2024-01-11T01:58:53;100371.22;;;5.72;100.00
51468;BME280;37545;45.302;-122.946;2024-01-11T02:01:23;100368.66;;;5.72;100.00
51468;BME280;37545;45.302;-122.946;2024-01-11T02:04:02;100380.53;;;5.70;100.00
51468;BME280;37545;45.302;-122.946;2024-01-11T02:06:33;100380.63;;;5.72;100.00
51468;BME280;37545;45.302;-122.946;2024-01-11T02:09:03;100379.81;;;5.73;100.00
51468;BME280;37545;45.302;-122.946;2024-01-11T02:11:38;100375.59;;;5.75;100.00
51468;BME280;37545;45.302;-122.946;2024-01-11T02:14:11;100378.25;;;5.76;100.00
51468;BME280;37545;45.302;-122.946;2024-01-11T02:16:39;100383.31;;;5.75;100.00
51468;BME280;37545;45.302;-122.946;2024-01-11T02:19:13;100385.06;;;5.76;100.00
51468;BME280;37545;45.302;-122.946;2024-01-11T02:21:44;100393.91;;;5.82;100.00
51468;BME280;37545;45.302;-122.946;2024-01-11T02:24:16;100398.19;;;5.82;100.00
51468;BME280;37545;45.302;-122.946;2024-01-11T02:27:01;100406.13;;;5.88;100.00
51468;BME280;37545;45.302;-122.946;2024-01-11T02:29:31;100397.63;;;5.89;100.00
51468;BME280;37545;45.302;-122.946;2024-01-11T02:32:01;100398.44;;;5.88;100.00
51468;BME280;37545;45.302;-122.946;2024-01-11T02:34:31;100402.63;;;5.86;100.00
51468;BME280;37545;45.302;-122.946;2024-01-11T02:37:06;100404.13;;;5.81;100.00
51468;BME280;37545;45.302;-122.946;2024-01-11T02:39:39;100416.00;;;5.79;100.00
51468;BME280;37545;45.302;-122.946;2024-01-11T02:42:11;100414.19;;;5.76;100.00
51468;BME280;37545;45.302;-122.946;2024-01-11T02:44:42;100426.94;;;5.75;100.00
51468;BME280;37545;45.302;-122.946;2024-01-11T02:47:17;100441.44;;;5.73;100.00
51468;BME280;37545;45.302;-122.946;2024-01-11T02:52:25;100439.53;;;5.69;100.00
51468;BME280;37545;45.302;-122.946;2024-01-11T02:54:56;100449.25;;;5.76;100.00
51468;BME280;37545;45.302;-122.946;2024-01-11T02:57:26;100452.91;;;5.81;100.00
51468;BME280;37545;45.302;-122.946;2024-01-11T03:00:02;100459.94;;;5.85;100.00
51468;BME280;37545;45.302;-122.946;2024-01-11T03:02:32;100466.81;;;5.86;100.00
51468;BME280;37545;45.302;-122.946;2024-01-11T03:05:01;100462.41;;;5.83;100.00
51468;BME280;37545;45.302;-122.946;2024-01-11T03:07:30;100460.59;;;5.81;100.00
51468;BME280;37545;45.302;-122.946;2024-01-11T03:10:11;100466.47;;;5.78;100.00
51468;BME280;37545;45.302;-122.946;2024-01-11T03:12:40;100472.63;;;5.82;100.00
51468;BME280;37545;45.302;-122.946;2024-01-11T03:15:10;100482.97;;;5.83;100.00
51468;BME280;37545;45.302;-122.946;2024-01-11T03:17:44;100487.31;;;5.84;100.00
51468;BME280;37545;45.302;-122.946;2024-01-11T03:20:13;100491.81;;;5.90;100.00
51468;BME280;37545;45.302;-122.946;2024-01-11T03:22:46;100492.63;;;5.89;100.00
51468;BME280;37545;45.302;-122.946;2024-01-11T03:25:26;100503.03;;;5.92;100.00
51468;BME280;37545;45.302;-122.946;2024-01-11T03:27:56;100511.41;;;5.88;100.00
51468;BME280;37545;45.302;-122.946;2024-01-11T03:30:26;100508.59;;;5.82;100.00
51468;BME280;37545;45.302;-122.946;2024-01-11T03:32:55;100516.28;;;5.82;100.00
51468;BME280;37545;45.302;-122.946;2024-01-11T03:35:27;100520.28;;;5.75;100.00
51468;BME280;37545;45.302;-122.946;2024-01-11T03:37:57;100528.56;;;5.70;100.00
51468;BME280;37545;45.302;-122.946;2024-01-11T03:40:28;100527.56;;;5.66;100.00
51468;BME280;37545;45.302;-122.946;2024-01-11T03:42:57;100517.78;;;5.59;100.00
51468;BME280;37545;45.302;-122.946;2024-01-11T03:45:29;100522.22;;;5.61;100.00
51468;BME280;37545;45.302;-122.946;2024-01-11T03:47:59;100528.38;;;5.47;100.00
51468;BME280;37545;45.302;-122.946;2024-01-11T03:50:28;100532.50;;;5.43;100.00
51468;BME280;37545;45.302;-122.946;2024-01-11T03:52:58;100535.72;;;5.39;100.00
51468;BME280;37545;45.302;-122.946;2024-01-11T03:55:44;100540.84;;;5.39;100.00
51468;BME280;37545;45.302;-122.946;2024-01-11T03:58:13;100535.66;;;5.38;100.00
51468;BME280;37545;45.302;-122.946;2024-01-11T04:00:42;100536.59;;;5.40;100.00
51468;BME280;37545;45.302;-122.946;2024-01-11T04:03:17;100539.81;;;5.36;100.00
51468;BME280;37545;45.302;-122.946;2024-01-11T04:05:46;100550.09;;;5.36;100.00
51468;BME280;37545;45.302;-122.946;2024-01-11T04:08:16;100560.22;;;5.33;100.00
51468;BME280;37545;45.302;-122.946;2024-01-11T04:11:01;100562.56;;;5.28;100.00
51468;BME280;37545;45.302;-122.946;2024-01-11T04:31:39;100558.06;;;5.06;100.00
51468;BME280;37545;45.302;-122.946;2024-01-11T04:34:08;100555.47;;;5.04;100.00
51468;BME280;37545;45.302;-122.946;2024-01-11T04:36:38;100555.69;;;5.09;100.00
51468;BME280;37545;45.302;-122.946;2024-01-11T04:39:17;100566.22;;;5.15;100.00
51468;BME280;37545;45.302;-122.946;2024-01-11T04:41:46;100555.81;;;5.12;100.00
51468;BME280;37545;45.302;-122.946;2024-01-11T04:44:16;100565.94;;;5.09;100.00
51468;BME280;37545;45.302;-122.946;2024-01-11T04:46:50;100571.81;;;5.07;100.00
51468;BME280;37545;45.302;-122.946;2024-01-11T04:49:21;100576.19;;;5.09;100.00
51468;BME280;37545;45.302;-122.946;2024-01-11T04:51:51;100585.84;;;5.15;100.00
51468;BME280;37545;45.302;-122.946;2024-01-11T04:54:19;100589.66;;;5.05;100.00
51468;BME280;37545;45.302;-122.946;2024-01-11T04:57:00;100592.00;;;5.00;100.00
51468;BME280;37545;45.302;-122.946;2024-01-11T04:59:29;100594.25;;;4.94;100.00
51468;BME280;37545;45.302;-122.946;2024-01-11T05:02:01;100606.81;;;4.88;100.00
51468;BME280;37545;45.302;-122.946;2024-01-11T05:04:32;100599.03;;;4.87;100.00
51468;BME280;37545;45.302;-122.946;2024-01-11T05:07:04;100599.84;;;4.86;100.00
51468;BME280;37545;45.302;-122.946;2024-01-11T05:09:33;100601.59;;;4.87;100.00
51468;BME280;37545;45.302;-122.946;2024-01-11T05:12:03;100610.22;;;4.89;100.00
51468;BME280;37545;45.302;-122.946;2024-01-11T05:14:43;100615.38;;;4.89;100.00
51468;BME280;37545;45.302;-122.946;2024-01-11T05:17:14;100621.44;;;4.91;100.00
51468;BME280;37545;45.302;-122.946;2024-01-11T05:19:43;100616.31;;;4.91;100.00
51468;BME280;37545;45.302;-122.946;2024-01-11T05:22:15;100621.59;;;4.94;100.00
51468;BME280;37545;45.302;-122.946;2024-01-11T05:24:48;100633.44;;;4.92;100.00
51468;BME280;37545;45.302;-122.946;2024-01-11T05:27:17;100624.88;;;4.91;100.00
51468;BME280;37545;45.302;-122.946;2024-01-11T05:29:46;100632.00;;;4.97;100.00
51468;BME280;37545;45.302;-122.946;2024-01-11T05:32:27;100620.72;;;4.93;100.00
51468;BME280;37545;45.302;-122.946;2024-01-11T05:34:56;100633.63;;;4.95;100.00
51468;BME280;37545;45.302;-122.946;2024-01-11T05:37:26;100631.06;;;4.95;100.00
51468;BME280;37545;45.302;-122.946;2024-01-11T05:40:09;100636.41;;;4.99;100.00
51468;BME280;37545;45.302;-122.946;2024-01-11T05:42:40;100640.66;;;4.99;100.00
51468;BME280;37545;45.302;-122.946;2024-01-11T05:45:10;100643.88;;;4.95;100.00
51468;BME280;37545;45.302;-122.946;2024-01-11T05:47:51;100649.56;;;4.89;100.00
51468;BME280;37545;45.302;-122.946;2024-01-11T05:50:21;100664.06;;;4.89;100.00
51468;BME280;37545;45.302;-122.946;2024-01-11T05:52:57;100650.28;;;4.87;100.00
51468;BME280;37545;45.302;-122.946;2024-01-11T05:55:29;100652.72;;;4.83;100.00
51468;BME280;37545;45.302;-122.946;2024-01-11T05:57:59;100658.06;;;4.88;100.00
51468;BME280;37545;45.302;-122.946;2024-01-11T06:00:28;100661.75;;;4.93;100.00
51468;BME280;37545;45.302;-122.946;2024-01-11T06:03:02;100674.66;;;4.95;100.00
51468;BME280;37545;45.302;-122.946;2024-01-11T06:05:31;100682.25;;;4.93;100.00
51468;BME280;37545;45.302;-122.946;2024-01-11T06:08:00;100685.06;;;4.98;100.00
51468;BME280;37545;45.302;-122.946;2024-01-11T06:10:29;100685.06;;;4.98;100.00
51468;BME280;37545;45.302;-122.946;2024-01-11T06:12:59;100690.19;;;4.98;100.00
51468;BME280;37545;45.302;-122.946;2024-01-11T06:15:31;100686.97;;;5.02;100.00
51468;BME280;37545;45.302;-122.946;2024-01-11T06:18:03;100706.81;;;5.06;100.00
51468;BME280;37545;45.302;-122.946;2024-01-11T06:20:33;100706.81;;;5.06;100.00
51468;BME280;37545;45.302;-122.946;2024-01-11T06:23:16;100704.97;;;5.03;100.00
51468;BME280;37545;45.302;-122.946;2024-01-11T06:25:46;100721.28;;;5.04;100.00
51468;BME280;37545;45.302;-122.946;2024-01-11T06:28:15;100712.53;;;5.00;100.00
51468;BME280;37545;45.302;-122.946;2024-01-11T06:30:55;100714.28;;;5.01;100.00
51468;BME280;37545;45.302;-122.946;2024-01-11T06:33:28;100710.84;;;5.01;100.00
51468;BME280;37545;45.302;-122.946;2024-01-11T06:35:57;100720.31;;;5.02;100.00
51468;BME280;37545;45.302;-122.946;2024-01-11T06:38:36;100729.03;;;5.06;100.00
51468;BME280;37545;45.302;-122.946;2024-01-11T06:41:05;100729.25;;;5.10;100.00
51468;BME280;37545;45.302;-122.946;2024-01-11T06:43:35;100724.06;;;5.09;100.00
51468;BME280;37545;45.302;-122.946;2024-01-11T06:46:10;100729.50;;;5.15;100.00
51468;BME280;37545;45.302;-122.946;2024-01-11T06:48:41;100721.75;;;5.13;100.00
51468;BME280;37545;45.302;-122.946;2024-01-11T06:51:12;100722.28;;;5.08;100.00
51468;BME280;37545;45.302;-122.946;2024-01-11T06:53:45;100731.69;;;5.07;100.00
51468;BME280;37545;45.302;-122.946;2024-01-11T06:56:17;100734.97;;;5.04;100.00
51468;BME280;37545;45.302;-122.946;2024-01-11T06:58:47;100735.69;;;5.02;100.00
51468;BME280;37545;45.302;-122.946;2024-01-11T07:01:16;100738.25;;;5.02;100.00
51468;BME280;37545;45.302;-122.946;2024-01-11T07:03:57;100738.09;;;4.99;100.00
51468;BME280;37545;45.302;-122.946;2024-01-11T07:06:26;100732.09;;;4.98;100.00
51468;BME280;37545;45.302;-122.946;2024-01-11T07:08:55;100739.69;;;4.97;100.00
51468;BME280;37545;45.302;-122.946;2024-01-11T07:11:41;100749.06;;;4.96;100.00
51468;BME280;37545;45.302;-122.946;2024-01-11T07:14:10;100738.09;;;4.99;100.00
51468;BME280;37545;45.302;-122.946;2024-01-11T07:16:39;100750.84;;;4.97;100.00
51468;BME280;37545;45.302;-122.946;2024-01-11T07:19:29;100732.66;;;4.93;100.00
51468;BME280;37545;45.302;-122.946;2024-01-11T07:22:02;100738.75;;;4.95;100.00
51468;BME280;37545;45.302;-122.946;2024-01-11T07:24:37;100754.13;;;4.95;100.00
51468;BME280;37545;45.302;-122.946;2024-01-11T07:27:07;100754.28;;;4.98;100.00
51468;BME280;37545;45.302;-122.946;2024-01-11T07:29:36;100762.06;;;4.99;100.00
51468;BME280;37545;45.302;-122.946;2024-01-11T07:32:06;100759.66;;;5.02;100.00
51468;BME280;37545;45.302;-122.946;2024-01-11T07:34:44;100768.53;;;5.09;100.00
51468;BME280;37545;45.302;-122.946;2024-01-11T07:37:13;100757.47;;;5.10;100.00
51468;BME280;37545;45.302;-122.946;2024-01-11T07:39:44;100759.25;;;5.11;100.00
51468;BME280;37545;45.302;-122.946;2024-01-11T07:42:17;100769.81;;;5.17;100.00
51468;BME280;37545;45.302;-122.946;2024-01-11T07:44:46;100769.81;;;5.17;100.00
51468;BME280;37545;45.302;-122.946;2024-01-11T07:47:15;100764.38;;;5.11;100.00
51468;BME280;37545;45.302;-122.946;2024-01-11T07:49:49;100760.84;;;5.09;100.00
51468;BME280;37545;45.302;-122.946;2024-01-11T07:52:24;100760.69;;;5.06;100.00
51468;BME280;37545;45.302;-122.946;2024-01-11T07:54:53;100764.19;;;5.08;100.00
51468;BME280;37545;45.302;-122.946;2024-01-11T07:57:23;100768.59;;;5.11;100.00
51468;BME280;37545;45.302;-122.946;2024-01-11T07:59:58;100762.59;;;5.10;100.00
51468;BME280;37545;45.302;-122.946;2024-01-11T08:02:27;100780.78;;;5.15;100.00
51468;BME280;37545;45.302;-122.946;2024-01-11T08:05:02;100767.72;;;5.10;100.00
51468;BME280;37545;45.302;-122.946;2024-01-11T08:07:41;100780.56;;;5.10;100.00
51468;BME280;37545;45.302;-122.946;2024-01-11T15:47:56;100877.66;;;4.88;100.00
51468;BME280;37545;45.302;-122.946;2024-01-11T15:50:41;100874.84;;;4.83;100.00
51468;BME280;37545;45.302;-122.946;2024-01-11T15:53:10;100867.00;;;4.80;100.00
51468;BME280;37545;45.302;-122.946;2024-01-11T15:58:23;100862.19;;;4.70;100.00
51468;BME280;37545;45.302;-122.946;2024-01-11T16:00:52;100867.31;;;4.70;100.00
51468;BME280;37545;45.302;-122.946;2024-01-11T16:03:34;100863.69;;;4.66;100.00
51468;BME280;37545;45.302;-122.946;2024-01-11T16:06:04;100866.66;;;4.74;100.00
51468;BME280;37545;45.302;-122.946;2024-01-11T16:08:33;100864.81;;;4.71;100.00
51468;BME280;37545;45.302;-122.946;2024-01-11T20:35:42;100746.81;;;7.00;100.00
51468;BME280;37545;45.302;-122.946;2024-01-11T20:56:25;100722.34;;;7.50;100.00
51468;BME280;37545;45.302;-122.946;2024-01-11T20:58:55;100730.56;;;7.62;100.00
51468;BME280;37545;45.302;-122.946;2024-01-11T21:01:24;100715.44;;;7.70;100.00
51468;BME280;37545;45.302;-122.946;2024-01-11T21:04:00;100721.56;;;7.73;100.00
51468;BME280;37545;45.302;-122.946;2024-01-11T21:58:27;100677.22;;;8.03;100.00
51468;BME280;37545;45.302;-122.946;2024-01-11T22:00:57;100682.44;;;8.05;100.00
